Time;durP1;ratioP1;P1;durP2;ratioP2;P2;SDS_P1;SDS_P2;PMS_P1;PMS_P2;Temp;Humidity;BMP_temperature;BMP_pressure;BME280_temperature;BME280_humidity;BME280_pressure;Samples;Min_cycle;Max_cycle;Signal;HPM_P1;HPM_P2
2023/03/18 00:00:35;;;;;;;;;;;;;;;;;;4969337;28;20449;-65
2023/03/18 00:03:05;;;;;;;;;;;;;;;;;;4941476;28;21037;-65
2023/03/18 00:05:30;;;;;;;;;;;;;;;;;;4956437;28;20636;-65
2023/03/18 00:07:59;;;;;;;;;;;;;;;;;;4953553;28;19972;-65
2023/03/18 00:10:26;;;;;;;;;;;;;;;;;;4929887;28;19922;-65
2023/03/18 00:12:52;;;;;;;;;;;;;;;;;;4970593;28;19925;-65
2023/03/18 00:15:20;;;;;;;;;;;;;;;;;;4957112;28;19918;-65
2023/03/18 00:17:45;;;;;;;;;;;;;;;;;;4931052;28;19998;-65
2023/03/18 00:20:13;;;;;;;;;;;;;;;;;;4953482;28;20189;-65
2023/03/18 00:22:42;;;;;;;;;;;;;;;;;;4953173;28;19938;-65
2023/03/18 00:25:07;;;;;;;;;;;;;;;;;;4927479;28;20233;-64
2023/03/18 00:27:35;;;;;;;;;;;;;;;;;;4971295;28;20344;-64
2023/03/18 00:30:00;;;;;;;;;;;;;;;;;;4968924;28;19924;-64
2023/03/18 00:32:26;;;;;;;;;;;;;;;;;;4970490;28;20306;-65
2023/03/18 00:34:52;;;;;;;;;;;;;;;;;;4953555;28;19969;-65
2023/03/18 00:37:29;;;;;;;;;;;;;;;;;;4971635;28;19922;-65
2023/03/18 00:39:57;;;;;;;;;;;;;;;;;;4952011;28;19969;-65
2023/03/18 00:42:34;;;;;;;;;;;;;;;;;;4970614;28;20341;-65
2023/03/18 00:45:00;;;;;;;;;;;;;;;;;;4956967;28;19922;-65
2023/03/18 00:47:26;;;;;;;;;;;;;;;;;;4959033;28;21638;-65
2023/03/18 00:49:56;;;;;;;;;;;;;;;;;;4968737;28;19976;-64
2023/03/18 00:52:22;;;;;;;;;;;;;;;;;;4957543;28;19918;-66
2023/03/18 00:54:47;;;;;;;;;;;;;;;;;;4955565;28;20689;-64
2023/03/18 00:57:13;;;;;;;;;;;;;;;;;;4935647;28;20708;-64
2023/03/18 00:59:38;;;;;;;;;;;;;;;;;;4969034;28;19921;-64
2023/03/18 01:02:06;;;;;;;;;;;;;;;;;;4969903;28;19953;-64
2023/03/18 01:04:32;;;;;;;;;;;;;;;;;;4937799;28;19936;-64
2023/03/18 01:06:57;;;;;;;;;;;;;;;;;;4953980;28;19922;-64
2023/03/18 01:09:23;;;;;;;;;;;;;;;;;;4952732;28;19969;-64
2023/03/18 01:11:50;;;;;;;;;;;;;;;;;;4956740;28;20019;-64
2023/03/18 01:14:15;;;;;;;;;;;;;;;;;;4969860;28;19956;-65
2023/03/18 01:16:41;;;;;;;;;;;;;;;;;;4966547;28;20400;-65
2023/03/18 01:19:06;;;;;;;;;;;;;;;;;;4968028;28;19926;-64
2023/03/18 01:21:31;;;;;;;;;;;;;;;;;;4956649;28;19917;-64
2023/03/18 01:23:59;;;;;;;;;;;;;;;;;;4955743;28;19922;-64
2023/03/18 01:26:25;;;;;;;;;;;;;;;;;;4968888;28;20456;-64
2023/03/18 01:28:50;;;;;;;;;;;;;;;;;;4955429;28;20040;-63
2023/03/18 01:31:15;;;;;;;;;;;;;;;;;;4927624;28;19949;-63
2023/03/18 01:33:41;;;;;;;;;;;;;;;;;;4969674;28;20386;-62
2023/03/18 01:36:09;;;;;;;;;;;;;;;;;;4955866;28;19941;-63
2023/03/18 01:38:37;;;;;;;;;;;;;;;;;;4955963;28;20004;-63
2023/03/18 01:41:07;;;;;;;;;;;;;;;;;;4939209;28;19921;-62
2023/03/18 01:43:35;;;;;;;;;;;;;;;;;;4954085;28;20454;-64
2023/03/18 01:46:03;;;;;;;;;;;;;;;;;;4942052;28;20242;-63
2023/03/18 01:48:32;;;;;;;;;;;;;;;;;;4969709;28;19926;-63
2023/03/18 01:50:58;;;;;;;;;;;;;;;;;;4951353;28;20390;-64
2023/03/18 01:53:23;;;;;;;;;;;;;;;;;;4941718;28;20648;-64
2023/03/18 01:55:49;;;;;;;;;;;;;;;;;;4954819;28;20145;-64
2023/03/18 01:58:16;;;;;;;;;;;;;;;;;;4969320;28;19926;-64
2023/03/18 02:00:41;;;;;;;;;;;;;;;;;;4966897;28;21560;-64
2023/03/18 02:03:08;;;;;;;;;;;;;;;;;;4969886;28;19926;-64
2023/03/18 02:05:34;;;;;;;;;;;;;;;;;;4938145;28;19917;-63
2023/03/18 02:08:02;;;;;;;;;;;;;;;;;;4968359;28;19952;-64
2023/03/18 02:10:27;;;;;;;;;;;;;;;;;;4939621;28;19941;-64
2023/03/18 02:12:56;;;;;;;;;;;;;;;;;;4938628;28;20033;-64
2023/03/18 02:15:27;;;;;;;;;;;;;;;;;;4958632;28;19922;-63
2023/03/18 02:18:04;;;;;;;;;;;;;;;;;;4936567;28;20082;-63
2023/03/18 02:20:29;;;;;;;;;;;;;;;;;;4937578;28;20459;-63
2023/03/18 02:22:57;;;;;;;;;;;;;;;;;;4966948;28;19944;-63
2023/03/18 02:25:25;;;;;;;;;;;;;;;;;;4966443;28;20404;-64
2023/03/18 02:27:53;;;;;;;;;;;;;;;;;;4968070;28;19925;-64
2023/03/18 02:30:19;;;;;;;;;;;;;;;;;;4952701;28;20139;-65
2023/03/18 02:32:46;;;;;;;;;;;;;;;;;;4956652;28;20202;-64
2023/03/18 02:35:11;;;;;;;;;;;;;;;;;;4971678;28;19922;-64
2023/03/18 02:37:39;;;;;;;;;;;;;;;;;;4972497;28;19922;-65
2023/03/18 02:40:04;;;;;;;;;;;;;;;;;;4971098;28;19922;-64
2023/03/18 02:42:32;;;;;;;;;;;;;;;;;;4942692;28;20082;-64
2023/03/18 02:44:58;;;;;;;;;;;;;;;;;;4954860;28;19922;-64
2023/03/18 02:47:23;;;;;;;;;;;;;;;;;;4973904;28;19929;-64
2023/03/18 02:49:54;;;;;;;;;;;;;;;;;;4946356;28;19933;-64
2023/03/18 02:52:19;;;;;;;;;;;;;;;;;;4958662;28;19928;-64
2023/03/18 02:54:45;;;;;;;;;;;;;;;;;;4958686;28;19922;-64
2023/03/18 02:57:13;;;;;;;;;;;;;;;;;;4971551;28;20101;-64
2023/03/18 02:59:43;;;;;;;;;;;;;;;;;;4972361;28;20265;-64
2023/03/18 03:02:14;;;;;;;;;;;;;;;;;;4971744;28;19917;-64
2023/03/18 03:04:42;;;;;;;;;;;;;;;;;;4942795;28;20057;-64
2023/03/18 03:07:07;;;;;;;;;;;;;;;;;;4958343;28;20021;-64
2023/03/18 03:09:33;;;;;;;;;;;;;;;;;;4956188;28;19918;-64
2023/03/18 03:12:01;;;;;;;;;;;;;;;;;;4962421;28;19998;-64
2023/03/18 03:14:26;;;;;;;;;;;;;;;;;;4958003;28;19926;-64
2023/03/18 03:16:51;;;;;;;;;;;;;;;;;;4972002;28;19918;-64
2023/03/18 03:19:17;;;;;;;;;;;;;;;;;;4957434;28;20369;-64
2023/03/18 03:21:42;;;;;;;;;;;;;;;;;;4970302;28;19956;-64
2023/03/18 03:24:10;;;;;;;;;;;;;;;;;;4954654;28;19952;-64
2023/03/18 03:26:35;;;;;;;;;;;;;;;;;;4952456;28;20370;-64
2023/03/18 03:29:03;;;;;;;;;;;;;;;;;;4941137;28;19918;-64
2023/03/18 03:31:31;;;;;;;;;;;;;;;;;;4930884;28;19918;-65
2023/03/18 03:33:59;;;;;;;;;;;;;;;;;;4954987;28;19926;-64
2023/03/18 03:36:27;;;;;;;;;;;;;;;;;;4971661;28;20285;-64
2023/03/18 03:38:55;;;;;;;;;;;;;;;;;;4941499;28;19953;-64
2023/03/18 03:41:23;;;;;;;;;;;;;;;;;;4953749;28;20092;-65
2023/03/18 03:43:48;;;;;;;;;;;;;;;;;;4942610;28;20450;-64
2023/03/18 03:46:17;;;;;;;;;;;;;;;;;;4927610;28;20274;-64
2023/03/18 03:48:43;;;;;;;;;;;;;;;;;;4955853;28;20009;-64
2023/03/18 03:51:11;;;;;;;;;;;;;;;;;;4968435;28;19925;-64
2023/03/18 03:53:37;;;;;;;;;;;;;;;;;;4956815;28;20703;-64
2023/03/18 03:56:02;;;;;;;;;;;;;;;;;;4971164;28;19922;-64
2023/03/18 03:58:32;;;;;;;;;;;;;;;;;;4955429;28;19993;-65
2023/03/18 04:01:00;;;;;;;;;;;;;;;;;;4941955;28;19945;-65
2023/03/18 04:03:28;;;;;;;;;;;;;;;;;;4948090;28;20017;-66
2023/03/18 04:05:54;;;;;;;;;;;;;;;;;;4957561;28;19922;-64
2023/03/18 04:08:19;;;;;;;;;;;;;;;;;;4941776;28;19929;-64
2023/03/18 04:10:44;;;;;;;;;;;;;;;;;;4956878;28;20336;-64
2023/03/18 04:13:12;;;;;;;;;;;;;;;;;;4940417;28;19956;-64
2023/03/18 04:15:41;;;;;;;;;;;;;;;;;;4954133;28;20065;-66
2023/03/18 04:18:12;;;;;;;;;;;;;;;;;;4971449;28;19941;-64
2023/03/18 04:20:37;;;;;;;;;;;;;;;;;;4965572;28;20192;-64
2023/03/18 04:23:02;;;;;;;;;;;;;;;;;;4965791;28;19928;-64
2023/03/18 04:25:28;;;;;;;;;;;;;;;;;;4967399;28;19918;-64
2023/03/18 04:27:56;;;;;;;;;;;;;;;;;;4941268;28;20096;-65
2023/03/18 04:30:22;;;;;;;;;;;;;;;;;;4953274;28;19918;-63
2023/03/18 04:32:50;;;;;;;;;;;;;;;;;;4970165;28;20385;-64
2023/03/18 04:35:16;;;;;;;;;;;;;;;;;;4970363;28;20517;-64
2023/03/18 04:37:41;;;;;;;;;;;;;;;;;;4928320;28;19933;-65
2023/03/18 04:40:09;;;;;;;;;;;;;;;;;;4954949;28;20266;-64
2023/03/18 04:42:34;;;;;;;;;;;;;;;;;;4953994;28;20062;-65
2023/03/18 04:45:00;;;;;;;;;;;;;;;;;;4958917;28;20614;-64
2023/03/18 04:47:26;;;;;;;;;;;;;;;;;;4954297;28;19922;-65
2023/03/18 04:49:52;;;;;;;;;;;;;;;;;;4969654;28;19940;-64
2023/03/18 04:52:17;;;;;;;;;;;;;;;;;;4970540;28;19918;-65
2023/03/18 04:54:43;;;;;;;;;;;;;;;;;;4968971;28;19936;-64
2023/03/18 04:57:08;;;;;;;;;;;;;;;;;;4971345;28;20433;-65
2023/03/18 04:59:36;;;;;;;;;;;;;;;;;;4956944;28;20163;-65
2023/03/18 05:02:02;;;;;;;;;;;;;;;;;;4956318;28;20310;-65
2023/03/18 05:04:36;;;;;;;;;;;;;;;;;;4953993;28;20295;-64
2023/03/18 05:07:04;;;;;;;;;;;;;;;;;;4956118;28;19921;-65
2023/03/18 05:09:30;;;;;;;;;;;;;;;;;;4954808;28;21088;-64
2023/03/18 05:11:55;;;;;;;;;;;;;;;;;;4936451;28;19929;-64
2023/03/18 05:14:20;;;;;;;;;;;;;;;;;;4949302;28;19921;-66
2023/03/18 05:16:46;;;;;;;;;;;;;;;;;;4925293;28;19921;-64
2023/03/18 05:19:11;;;;;;;;;;;;;;;;;;4952993;28;20863;-64
2023/03/18 05:21:40;;;;;;;;;;;;;;;;;;4970585;28;19926;-65
2023/03/18 05:24:05;;;;;;;;;;;;;;;;;;4970839;28;19933;-65
2023/03/18 05:26:37;;;;;;;;;;;;;;;;;;4968339;28;19946;-65
2023/03/18 05:29:05;;;;;;;;;;;;;;;;;;4969887;28;19969;-65
2023/03/18 05:31:33;;;;;;;;;;;;;;;;;;4955277;28;20349;-65
2023/03/18 05:34:01;;;;;;;;;;;;;;;;;;4938276;28;19932;-65
2023/03/18 05:36:28;;;;;;;;;;;;;;;;;;4969510;28;20481;-65
2023/03/18 05:38:53;;;;;;;;;;;;;;;;;;4955023;28;20666;-65
2023/03/18 05:41:21;;;;;;;;;;;;;;;;;;4966184;28;20074;-65
2023/03/18 05:43:49;;;;;;;;;;;;;;;;;;4926556;28;20638;-65
2023/03/18 05:46:17;;;;;;;;;;;;;;;;;;4955141;28;20021;-65
2023/03/18 05:48:43;;;;;;;;;;;;;;;;;;4953204;28;19925;-65
2023/03/18 05:51:08;;;;;;;;;;;;;;;;;;4954365;28;20891;-65
2023/03/18 05:53:33;;;;;;;;;;;;;;;;;;4953243;28;20322;-65
2023/03/18 05:56:04;;;;;;;;;;;;;;;;;;4967654;28;19928;-65
2023/03/18 05:58:30;;;;;;;;;;;;;;;;;;4938927;28;20115;-65
2023/03/18 06:00:58;;;;;;;;;;;;;;;;;;4969063;28;21091;-64
2023/03/18 06:03:24;;;;;;;;;;;;;;;;;;4953446;28;19918;-64
2023/03/18 06:05:49;;;;;;;;;;;;;;;;;;4967039;28;20603;-65
2023/03/18 06:08:16;;;;;;;;;;;;;;;;;;4962236;28;20638;-65
2023/03/18 06:10:41;;;;;;;;;;;;;;;;;;4934276;28;19922;-65
2023/03/18 06:13:06;;;;;;;;;;;;;;;;;;4953489;28;19977;-66
2023/03/18 06:15:32;;;;;;;;;;;;;;;;;;4969399;28;20388;-65
2023/03/18 06:18:03;;;;;;;;;;;;;;;;;;4938144;28;20552;-65
2023/03/18 06:20:28;;;;;;;;;;;;;;;;;;4952245;28;19929;-66
2023/03/18 06:22:54;;;;;;;;;;;;;;;;;;4965631;28;20106;-65
2023/03/18 06:25:19;;;;;;;;;;;;;;;;;;4967353;28;19922;-64
2023/03/18 06:27:45;;;;;;;;;;;;;;;;;;4952879;28;19971;-67
2023/03/18 06:30:14;;;;;;;;;;;;;;;;;;4953065;28;20527;-65
2023/03/18 06:32:44;;;;;;;;;;;;;;;;;;4954117;28;19917;-65
2023/03/18 06:35:13;;;;;;;;;;;;;;;;;;4969010;28;20004;-65
2023/03/18 06:37:38;;;;;;;;;;;;;;;;;;4955590;28;20378;-66
2023/03/18 06:40:04;;;;;;;;;;;;;;;;;;4936032;28;20023;-66
2023/03/18 06:42:30;;;;;;;;;;;;;;;;;;4966557;28;20341;-66
2023/03/18 06:44:55;;;;;;;;;;;;;;;;;;4940577;28;19976;-66
2023/03/18 06:47:21;;;;;;;;;;;;;;;;;;4965803;28;20169;-67
2023/03/18 06:49:47;;;;;;;;;;;;;;;;;;4939875;28;19989;-66
2023/03/18 06:52:13;;;;;;;;;;;;;;;;;;4919207;28;20359;-66
2023/03/18 06:54:39;;;;;;;;;;;;;;;;;;4957689;28;21163;-66
2023/03/18 06:57:05;;;;;;;;;;;;;;;;;;4932346;28;19965;-64
2023/03/18 06:59:30;;;;;;;;;;;;;;;;;;4966131;28;19934;-66
2023/03/18 07:01:58;;;;;;;;;;;;;;;;;;4935661;28;19925;-67
2023/03/18 07:04:24;;;;;;;;;;;;;;;;;;4964242;28;20290;-67
2023/03/18 07:06:50;;;;;;;;;;;;;;;;;;4962763;28;20393;-65
2023/03/18 07:09:17;;;;;;;;;;;;;;;;;;4961256;28;19938;-65
2023/03/18 07:11:44;;;;;;;;;;;;;;;;;;4934088;28;19923;-65
2023/03/18 07:14:15;;;;;;;;;;;;;;;;;;4922590;28;19926;-66
2023/03/18 07:16:43;;;;;;;;;;;;;;;;;;4935658;28;20004;-67
2023/03/18 07:19:08;;;;;;;;;;;;;;;;;;4935533;28;20052;-66
2023/03/18 07:21:34;;;;;;;;;;;;;;;;;;4969751;28;20330;-66
2023/03/18 07:24:00;;;;;;;;;;;;;;;;;;4964833;28;19926;-66
2023/03/18 07:26:28;;;;;;;;;;;;;;;;;;4967056;28;20284;-69
2023/03/18 07:28:55;;;;;;;;;;;;;;;;;;4940961;28;19934;-66
2023/03/18 07:31:24;;;;;;;;;;;;;;;;;;4966262;28;20066;-66
2023/03/18 07:33:49;;;;;;;;;;;;;;;;;;4965846;28;19933;-66
2023/03/18 07:36:18;;;;;;;;;;;;;;;;;;4932824;28;20040;-66
2023/03/18 07:38:43;;;;;;;;;;;;;;;;;;4933863;28;19922;-66
2023/03/18 07:41:08;;;;;;;;;;;;;;;;;;4934483;28;20185;-65
2023/03/18 07:43:34;;;;;;;;;;;;;;;;;;4965742;28;20398;-67
2023/03/18 07:45:59;;;;;;;;;;;;;;;;;;4966467;28;19918;-67
2023/03/18 07:48:24;;;;;;;;;;;;;;;;;;4952455;28;20297;-66
2023/03/18 07:50:55;;;;;;;;;;;;;;;;;;4955488;28;20053;-66
2023/03/18 07:53:23;;;;;;;;;;;;;;;;;;4954117;28;20072;-67
2023/03/18 07:55:48;;;;;;;;;;;;;;;;;;4939236;28;19925;-66
2023/03/18 07:58:14;;;;;;;;;;;;;;;;;;4952601;28;20943;-65
2023/03/18 08:00:39;;;;;;;;;;;;;;;;;;4969718;28;19921;-64
2023/03/18 08:03:06;;;;;;;;;;;;;;;;;;4953926;28;20578;-66
2023/03/18 08:05:32;;;;;;;;;;;;;;;;;;4954576;28;20432;-66
2023/03/18 08:07:58;;;;;;;;;;;;;;;;;;4955943;28;20365;-66
2023/03/18 08:10:24;;;;;;;;;;;;;;;;;;4953075;28;20058;-66
2023/03/18 08:12:49;;;;;;;;;;;;;;;;;;4960524;28;19922;-66
2023/03/18 08:15:17;;;;;;;;;;;;;;;;;;4953493;28;19964;-67
2023/03/18 08:17:42;;;;;;;;;;;;;;;;;;4950116;28;19945;-66
2023/03/18 08:20:11;;;;;;;;;;;;;;;;;;4936783;28;20607;-66
2023/03/18 08:22:36;;;;;;;;;;;;;;;;;;4967463;28;20431;-66
2023/03/18 08:25:04;;;;;;;;;;;;;;;;;;4966517;28;19957;-66
2023/03/18 08:27:29;;;;;;;;;;;;;;;;;;4953645;28;20626;-65
2023/03/18 08:29:54;;;;;;;;;;;;;;;;;;4953031;28;20268;-66
2023/03/18 08:32:23;;;;;;;;;;;;;;;;;;4924851;28;20340;-66
2023/03/18 08:34:48;;;;;;;;;;;;;;;;;;4963029;28;19932;-66
2023/03/18 08:37:13;;;;;;;;;;;;;;;;;;4967899;28;20234;-66
2023/03/18 08:39:43;;;;;;;;;;;;;;;;;;4966953;28;20276;-66
2023/03/18 08:42:09;;;;;;;;;;;;;;;;;;4951105;28;20142;-65
2023/03/18 08:44:40;;;;;;;;;;;;;;;;;;4970205;28;20211;-65
2023/03/18 08:47:06;;;;;;;;;;;;;;;;;;4929542;28;20467;-66
2023/03/18 08:49:34;;;;;;;;;;;;;;;;;;4955634;28;19929;-67
2023/03/18 08:52:00;;;;;;;;;;;;;;;;;;4955028;28;19918;-67
2023/03/18 08:54:30;;;;;;;;;;;;;;;;;;4969838;28;20609;-67
2023/03/18 08:56:56;;;;;;;;;;;;;;;;;;4951317;28;20337;-67
2023/03/18 08:59:23;;;;;;;;;;;;;;;;;;4941820;28;19924;-67
2023/03/18 09:01:49;;;;;;;;;;;;;;;;;;4967366;28;19922;-67
2023/03/18 09:04:14;;;;;;;;;;;;;;;;;;4968002;28;19952;-67
2023/03/18 09:06:42;;;;;;;;;;;;;;;;;;4938942;28;19926;-66
2023/03/18 09:09:10;;;;;;;;;;;;;;;;;;4935260;28;19967;-65
2023/03/18 09:11:36;;;;;;;;;;;;;;;;;;4951605;28;19929;-67
2023/03/18 09:14:01;;;;;;;;;;;;;;;;;;4966777;28;20465;-66
2023/03/18 09:16:27;;;;;;;;;;;;;;;;;;4951579;28;19930;-66
2023/03/18 09:18:52;;;;;;;;;;;;;;;;;;4919741;28;19922;-65
2023/03/18 09:21:18;;;;;;;;;;;;;;;;;;4951570;28;19918;-66
2023/03/18 09:23:44;;;;;;;;;;;;;;;;;;4933407;28;19929;-66
2023/03/18 09:26:10;;;;;;;;;;;;;;;;;;4950318;28;20020;-66
2023/03/18 09:28:36;;;;;;;;;;;;;;;;;;4952110;28;19992;-66
2023/03/18 09:31:04;;;;;;;;;;;;;;;;;;4965242;28;20075;-67
2023/03/18 09:33:30;;;;;;;;;;;;;;;;;;4967240;28;19926;-66
2023/03/18 09:35:59;;;;;;;;;;;;;;;;;;4926767;28;19968;-66
2023/03/18 09:38:24;;;;;;;;;;;;;;;;;;4967000;28;19989;-66
2023/03/18 09:40:52;;;;;;;;;;;;;;;;;;4951390;28;19941;-66
2023/03/18 09:43:17;;;;;;;;;;;;;;;;;;4966756;28;20374;-67
2023/03/18 09:45:46;;;;;;;;;;;;;;;;;;4967884;28;19922;-66
2023/03/18 09:48:11;;;;;;;;;;;;;;;;;;4955236;28;19984;-66
2023/03/18 09:50:37;;;;;;;;;;;;;;;;;;4950418;28;20168;-66
2023/03/18 09:53:02;;;;;;;;;;;;;;;;;;4952217;28;19927;-65
2023/03/18 09:55:28;;;;;;;;;;;;;;;;;;4967071;28;19972;-65
2023/03/18 09:57:54;;;;;;;;;;;;;;;;;;4926401;28;19922;-66
2023/03/18 10:00:19;;;;;;;;;;;;;;;;;;4955143;28;19930;-67
2023/03/18 10:02:45;;;;;;;;;;;;;;;;;;4939648;28;19921;-65
2023/03/18 10:05:11;;;;;;;;;;;;;;;;;;4951132;28;20005;-65
2023/03/18 10:07:36;;;;;;;;;;;;;;;;;;4952065;28;19996;-67
2023/03/18 10:10:02;;;;;;;;;;;;;;;;;;4951551;28;19997;-66
2023/03/18 10:15:44;;;;;;;;;;;;;;;;;;4952624;28;19972;-67
2023/03/18 10:18:09;;;;;;;;;;;;;;;;;;4954446;28;19940;-67
2023/03/18 10:20:35;;;;;;;;;;;;;;;;;;4952189;28;19961;-67
2023/03/18 10:25:55;;;;;;;;;;;;;;;;;;4968870;28;20494;-66
2023/03/18 10:28:22;;;;;;;;;;;;;;;;;;4968643;28;19925;-66
2023/03/18 10:30:48;;;;;;;;;;;;;;;;;;4964736;28;19922;-66
2023/03/18 10:33:13;;;;;;;;;;;;;;;;;;4948407;28;20508;-67
2023/03/18 10:35:38;;;;;;;;;;;;;;;;;;4936098;28;20520;-68
2023/03/18 10:38:04;;;;;;;;;;;;;;;;;;4948344;28;19928;-67
2023/03/18 10:40:29;;;;;;;;;;;;;;;;;;4933896;28;19918;-68
2023/03/18 10:42:55;;;;;;;;;;;;;;;;;;4947858;28;21464;-67
2023/03/18 10:45:21;;;;;;;;;;;;;;;;;;4965380;28;19923;-67
2023/03/18 10:47:46;;;;;;;;;;;;;;;;;;4968947;28;19928;-68
2023/03/18 10:50:12;;;;;;;;;;;;;;;;;;4966780;28;19918;-68
2023/03/18 10:52:37;;;;;;;;;;;;;;;;;;4969953;28;19945;-67
2023/03/18 10:55:05;;;;;;;;;;;;;;;;;;4954039;28;19961;-67
2023/03/18 10:57:32;;;;;;;;;;;;;;;;;;4957180;28;20224;-67
2023/03/18 10:59:57;;;;;;;;;;;;;;;;;;4957413;28;19922;-68
2023/03/18 11:02:23;;;;;;;;;;;;;;;;;;4953767;28;20377;-67
2023/03/18 11:04:57;;;;;;;;;;;;;;;;;;4956650;28;19926;-68
2023/03/18 11:07:24;;;;;;;;;;;;;;;;;;4971622;28;20185;-68
2023/03/18 11:09:50;;;;;;;;;;;;;;;;;;4940545;28;20371;-67
2023/03/18 11:12:15;;;;;;;;;;;;;;;;;;4971217;28;19976;-67
2023/03/18 11:14:41;;;;;;;;;;;;;;;;;;4954147;28;20531;-67
2023/03/18 11:17:09;;;;;;;;;;;;;;;;;;4955264;28;21268;-66
2023/03/18 11:19:34;;;;;;;;;;;;;;;;;;4926724;28;19918;-68
2023/03/18 11:22:00;;;;;;;;;;;;;;;;;;4939707;28;20133;-67
2023/03/18 11:24:37;;;;;;;;;;;;;;;;;;4968489;28;19944;-67
2023/03/18 11:27:03;;;;;;;;;;;;;;;;;;4956888;28;19924;-67
2023/03/18 11:29:29;;;;;;;;;;;;;;;;;;4955292;28;19922;-68
2023/03/18 11:31:56;;;;;;;;;;;;;;;;;;4941463;28;19965;-66
2023/03/18 11:34:22;;;;;;;;;;;;;;;;;;4954106;28;19921;-68
2023/03/18 11:36:47;;;;;;;;;;;;;;;;;;4956221;28;20309;-67
2023/03/18 11:39:15;;;;;;;;;;;;;;;;;;4956614;28;19969;-68
2023/03/18 11:41:40;;;;;;;;;;;;;;;;;;4971079;28;19926;-68
2023/03/18 11:44:06;;;;;;;;;;;;;;;;;;4965454;28;19936;-67
2023/03/18 11:46:31;;;;;;;;;;;;;;;;;;4970200;28;20005;-66
2023/03/18 11:49:12;;;;;;;;;;;;;;;;;;4949150;28;20392;-68
2023/03/18 11:51:38;;;;;;;;;;;;;;;;;;4931009;28;21175;-68
2023/03/18 11:54:03;;;;;;;;;;;;;;;;;;4935647;28;20227;-67
2023/03/18 11:56:29;;;;;;;;;;;;;;;;;;4951752;28;19989;-67
2023/03/18 11:58:54;;;;;;;;;;;;;;;;;;4949903;28;20033;-67
2023/03/18 12:01:19;;;;;;;;;;;;;;;;;;4965942;28;19926;-67
2023/03/18 12:03:48;;;;;;;;;;;;;;;;;;4938268;28;19930;-67
2023/03/18 12:06:13;;;;;;;;;;;;;;;;;;4938835;28;21611;-68
2023/03/18 12:08:40;;;;;;;;;;;;;;;;;;4966963;28;19922;-68
2023/03/18 12:11:06;;;;;;;;;;;;;;;;;;4936267;28;20389;-67
2023/03/18 12:13:33;;;;;;;;;;;;;;;;;;4938208;28;20445;-68
2023/03/18 12:15:59;;;;;;;;;;;;;;;;;;4942015;28;20539;-68
2023/03/18 12:18:24;;;;;;;;;;;;;;;;;;4952128;28;19941;-68
2023/03/18 12:20:49;;;;;;;;;;;;;;;;;;4935554;28;20484;-69
2023/03/18 12:23:15;;;;;;;;;;;;;;;;;;4950232;28;19974;-68
2023/03/18 12:25:40;;;;;;;;;;;;;;;;;;4967359;28;19937;-68
2023/03/18 12:28:06;;;;;;;;;;;;;;;;;;4967550;28;19933;-67
2023/03/18 12:33:49;;;;;;;;;;;;;;;;;;4933428;28;20460;-69
2023/03/18 12:36:15;;;;;;;;;;;;;;;;;;4961286;28;20279;-68
2023/03/18 12:38:43;;;;;;;;;;;;;;;;;;4951808;28;19922;-70
2023/03/18 12:41:09;;;;;;;;;;;;;;;;;;4914248;28;22080;-68
2023/03/18 12:43:36;;;;;;;;;;;;;;;;;;4935632;28;20312;-68
2023/03/18 12:46:01;;;;;;;;;;;;;;;;;;4924631;28;19930;-68
2023/03/18 12:48:27;;;;;;;;;;;;;;;;;;4933769;28;20020;-70
2023/03/18 12:50:52;;;;;;;;;;;;;;;;;;4940315;28;19922;-69
2023/03/18 12:53:21;;;;;;;;;;;;;;;;;;4947177;28;19924;-67
2023/03/18 12:55:46;;;;;;;;;;;;;;;;;;4944320;28;19922;-68
2023/03/18 12:58:13;;;;;;;;;;;;;;;;;;4964149;28;20491;-67
2023/03/18 13:00:38;;;;;;;;;;;;;;;;;;4926227;28;19921;-68
2023/03/18 13:03:06;;;;;;;;;;;;;;;;;;4949219;28;19980;-68
2023/03/18 13:05:31;;;;;;;;;;;;;;;;;;4933763;28;19932;-70
2023/03/18 13:07:59;;;;;;;;;;;;;;;;;;4962045;28;20344;-67
2023/03/18 13:10:25;;;;;;;;;;;;;;;;;;4958425;28;20425;-69
2023/03/18 13:12:50;;;;;;;;;;;;;;;;;;4959936;28;19928;-69
2023/03/18 13:15:16;;;;;;;;;;;;;;;;;;4947792;28;20220;-67
2023/03/18 13:17:43;;;;;;;;;;;;;;;;;;4950011;28;20247;-68
2023/03/18 13:20:09;;;;;;;;;;;;;;;;;;4943377;28;19945;-69
2023/03/18 13:22:35;;;;;;;;;;;;;;;;;;4914494;28;20252;-69
2023/03/18 13:25:00;;;;;;;;;;;;;;;;;;4942784;28;19987;-65
2023/03/18 13:27:26;;;;;;;;;;;;;;;;;;4946474;28;20377;-67
2023/03/18 13:29:52;;;;;;;;;;;;;;;;;;4958683;28;20052;-67
2023/03/18 13:32:32;;;;;;;;;;;;;;;;;;4951555;28;19922;-69
2023/03/18 13:34:58;;;;;;;;;;;;;;;;;;4955594;28;20016;-68
2023/03/18 13:37:23;;;;;;;;;;;;;;;;;;4936686;28;20040;-69
2023/03/18 13:39:51;;;;;;;;;;;;;;;;;;4940735;28;20360;-68
2023/03/18 13:42:17;;;;;;;;;;;;;;;;;;4966104;28;19917;-67
2023/03/18 13:44:44;;;;;;;;;;;;;;;;;;4955966;28;19926;-67
2023/03/18 13:47:09;;;;;;;;;;;;;;;;;;4938509;28;20497;-68
2023/03/18 13:49:35;;;;;;;;;;;;;;;;;;4967342;28;19926;-68
2023/03/18 13:52:01;;;;;;;;;;;;;;;;;;4967648;28;19929;-68
2023/03/18 13:57:42;;;;;;;;;;;;;;;;;;4952945;28;19944;-68
2023/03/18 14:00:08;;;;;;;;;;;;;;;;;;4967465;28;20362;-68
2023/03/18 14:02:34;;;;;;;;;;;;;;;;;;4967061;28;19922;-68
2023/03/18 14:04:59;;;;;;;;;;;;;;;;;;4934483;28;19941;-68
2023/03/18 14:07:25;;;;;;;;;;;;;;;;;;4968526;28;20039;-67
2023/03/18 14:09:50;;;;;;;;;;;;;;;;;;4953110;28;20007;-68
2023/03/18 14:12:16;;;;;;;;;;;;;;;;;;4955114;28;20522;-67
2023/03/18 14:14:41;;;;;;;;;;;;;;;;;;4966731;28;19944;-67
2023/03/18 14:17:09;;;;;;;;;;;;;;;;;;4925126;28;19980;-66
2023/03/18 14:19:34;;;;;;;;;;;;;;;;;;4966680;28;20370;-67
2023/03/18 14:21:59;;;;;;;;;;;;;;;;;;4961937;28;20015;-66
2023/03/18 14:24:25;;;;;;;;;;;;;;;;;;4953365;28;20336;-68
2023/03/18 14:26:53;;;;;;;;;;;;;;;;;;4954204;28;19953;-67
2023/03/18 14:29:18;;;;;;;;;;;;;;;;;;4969491;28;20357;-67
2023/03/18 14:31:43;;;;;;;;;;;;;;;;;;4971851;28;19926;-66
2023/03/18 14:34:09;;;;;;;;;;;;;;;;;;4957737;28;19918;-67
2023/03/18 14:36:37;;;;;;;;;;;;;;;;;;4972305;28;19976;-67
2023/03/18 14:39:03;;;;;;;;;;;;;;;;;;4953417;28;20281;-66
2023/03/18 14:41:31;;;;;;;;;;;;;;;;;;4931355;28;19987;-66
2023/03/18 14:44:01;;;;;;;;;;;;;;;;;;4971980;28;20579;-68
2023/03/18 14:46:30;;;;;;;;;;;;;;;;;;4958071;28;20402;-67
2023/03/18 14:48:55;;;;;;;;;;;;;;;;;;4958037;28;20006;-67
2023/03/18 14:51:20;;;;;;;;;;;;;;;;;;4957663;28;20274;-68
2023/03/18 14:53:47;;;;;;;;;;;;;;;;;;4955191;28;20667;-67
2023/03/18 14:56:13;;;;;;;;;;;;;;;;;;4967066;28;20021;-68
2023/03/18 14:58:38;;;;;;;;;;;;;;;;;;4944922;28;21583;-66
2023/03/18 15:01:03;;;;;;;;;;;;;;;;;;4969870;28;20008;-67
2023/03/18 15:03:29;;;;;;;;;;;;;;;;;;4953164;28;19945;-67
2023/03/18 15:05:59;;;;;;;;;;;;;;;;;;4954496;28;19957;-69
2023/03/18 15:08:26;;;;;;;;;;;;;;;;;;4957940;28;19952;-67
2023/03/18 15:10:52;;;;;;;;;;;;;;;;;;4973071;28;20527;-66
2023/03/18 15:13:19;;;;;;;;;;;;;;;;;;4957679;28;19929;-67
2023/03/18 15:15:45;;;;;;;;;;;;;;;;;;4969057;28;19922;-67
2023/03/18 15:18:11;;;;;;;;;;;;;;;;;;4971840;28;19980;-67
2023/03/18 15:20:36;;;;;;;;;;;;;;;;;;4957624;28;19922;-69
2023/03/18 15:23:01;;;;;;;;;;;;;;;;;;4955861;28;19925;-67
2023/03/18 15:25:27;;;;;;;;;;;;;;;;;;4943976;28;19925;-65
2023/03/18 15:27:54;;;;;;;;;;;;;;;;;;4954108;28;20024;-66
2023/03/18 15:30:23;;;;;;;;;;;;;;;;;;4956503;28;19945;-68
2023/03/18 15:32:48;;;;;;;;;;;;;;;;;;4958628;28;20483;-68
2023/03/18 15:35:14;;;;;;;;;;;;;;;;;;4957618;28;20792;-66
2023/03/18 15:37:39;;;;;;;;;;;;;;;;;;4941904;28;20688;-67
2023/03/18 15:40:10;;;;;;;;;;;;;;;;;;4956175;28;19973;-67
2023/03/18 15:42:36;;;;;;;;;;;;;;;;;;4958305;28;19928;-68
2023/03/18 15:45:02;;;;;;;;;;;;;;;;;;4955349;28;19926;-68
2023/03/18 15:47:27;;;;;;;;;;;;;;;;;;4971682;28;20153;-67
2023/03/18 15:49:56;;;;;;;;;;;;;;;;;;4969417;28;19937;-67
2023/03/18 15:52:24;;;;;;;;;;;;;;;;;;4970704;28;19918;-68
2023/03/18 15:54:52;;;;;;;;;;;;;;;;;;4957318;28;20198;-67
2023/03/18 15:57:20;;;;;;;;;;;;;;;;;;4972116;28;19922;-67
2023/03/18 15:59:51;;;;;;;;;;;;;;;;;;4940622;28;20020;-68
2023/03/18 16:02:17;;;;;;;;;;;;;;;;;;4964444;28;19929;-68
2023/03/18 16:04:44;;;;;;;;;;;;;;;;;;4954469;28;20741;-70
2023/03/18 16:13:43;;;;;;;;;;;;;;;;;;4953178;28;20183;-67
2023/03/18 16:16:13;;;;;;;;;;;;;;;;;;4955629;28;19970;-66
2023/03/18 16:18:39;;;;;;;;;;;;;;;;;;4968750;28;19925;-67
2023/03/18 16:21:07;;;;;;;;;;;;;;;;;;4959987;28;19937;-68
2023/03/18 16:23:32;;;;;;;;;;;;;;;;;;4969660;28;19926;-67
2023/03/18 16:25:58;;;;;;;;;;;;;;;;;;4970596;28;20382;-67
2023/03/18 16:28:27;;;;;;;;;;;;;;;;;;4954948;28;19922;-67
2023/03/18 16:30:54;;;;;;;;;;;;;;;;;;4969684;28;19926;-67
2023/03/18 16:33:20;;;;;;;;;;;;;;;;;;4942659;28;19918;-67
2023/03/18 16:35:46;;;;;;;;;;;;;;;;;;4968353;28;19929;-65
2023/03/18 16:38:11;;;;;;;;;;;;;;;;;;4955405;28;19922;-66
2023/03/18 16:40:36;;;;;;;;;;;;;;;;;;4949209;28;20070;-66
2023/03/18 16:43:02;;;;;;;;;;;;;;;;;;4968734;28;19922;-67
2023/03/18 16:45:27;;;;;;;;;;;;;;;;;;4938126;28;19957;-66
2023/03/18 16:47:52;;;;;;;;;;;;;;;;;;4955931;28;19984;-66
2023/03/18 16:50:18;;;;;;;;;;;;;;;;;;4926025;28;20512;-67
2023/03/18 16:52:43;;;;;;;;;;;;;;;;;;4955722;28;20386;-65
2023/03/18 16:55:09;;;;;;;;;;;;;;;;;;4957095;28;20016;-67
2023/03/18 16:57:35;;;;;;;;;;;;;;;;;;4954385;28;19972;-65
2023/03/18 17:00:04;;;;;;;;;;;;;;;;;;4940377;28;19928;-66